Rocky Branch, Texas
Current Conditions -  °F | °C
As of 12:35 PM on Sunday 21 Dec 2014 (Local Time) from KOSA Reporting Station
Overcast Overcast  
Wind Chill: 50°   Ceiling: 2000
Heat Index: 50°   Visibility: 10mi
Dew Point: 43°   Wind: 8mph
Humidity: 78%   Direction: 170°S
Pressure: 30.07"   Gusts: NA
Location:  33.2006°N, 94.6977°W
Report Text: KOSA 211835Z AUTO 17007KT 10SM OVC020 10/06 A3007 RMK AO1 T01000063
Loading
Personal Weather Stations






























Interactive Weather Map New forecast layout! Learn more

10-Day Weather Forecast

Advertisements
Track Severe Weather on mobile